Time;durP1;ratioP1;P1;durP2;ratioP2;P2;SDS_P1;SDS_P2;PMS_P1;PMS_P2;Temp;Humidity;BMP_temperature;BMP_pressure;BME280_temperature;BME280_humidity;BME280_pressure;Samples;Min_cycle;Max_cycle;Signal;HPM_P1;HPM_P2
2021/05/19 00:01:57;;;;;;;;;;;;;;;18.26;42.20;99347.16;5112615;28;20012;-52
2021/05/19 00:04:22;;;;;;;;;;;;;;;18.26;42.82;99346.31;5112825;28;19995;-51
2021/05/19 00:06:48;;;;;;;;;;;;;;;18.36;42.12;99335.59;5112806;27;19934;-52
2021/05/19 00:09:13;;;;;;;;;;;;;;;18.31;42.22;99338.28;5112766;28;19916;-50
2021/05/19 00:11:39;;;;;;;;;;;;;;;18.19;42.14;99351.16;5112823;28;19923;-52
2021/05/19 00:14:04;;;;;;;;;;;;;;;18.22;42.42;99335.31;5112140;28;19973;-49
2021/05/19 00:16:30;;;;;;;;;;;;;;;17.95;42.70;99351.59;5102711;28;19912;-51
2021/05/19 00:18:55;;;;;;;;;;;;;;;18.04;43.38;99350.00;5092177;28;20217;-50
2021/05/19 00:21:20;;;;;;;;;;;;;;;17.94;43.08;99352.66;5091965;28;19912;-53
2021/05/19 00:23:46;;;;;;;;;;;;;;;17.81;43.16;99350.41;5091182;28;20308;-47
2021/05/19 00:26:11;;;;;;;;;;;;;;;17.88;43.24;99362.59;5090987;28;20362;-49
2021/05/19 00:28:36;;;;;;;;;;;;;;;17.85;42.62;99365.78;5091675;28;19912;-48
2021/05/19 00:31:05;;;;;;;;;;;;;;;17.81;43.01;99361.19;5091503;28;19958;-49
2021/05/19 00:33:30;;;;;;;;;;;;;;;17.65;43.23;99361.09;5091347;28;20365;-52
2021/05/19 00:35:55;;;;;;;;;;;;;;;17.30;43.83;99351.69;5091381;28;19912;-52
2021/05/19 00:38:21;;;;;;;;;;;;;;;17.39;43.51;99358.19;5092031;28;19991;-50
2021/05/19 00:40:46;;;;;;;;;;;;;;;17.56;43.39;99355.38;5091643;28;20340;-51
2021/05/19 00:43:12;;;;;;;;;;;;;;;17.60;43.04;99363.72;5092119;28;19923;-52
2021/05/19 00:45:37;;;;;;;;;;;;;;;17.71;42.46;99359.25;5092418;28;20379;-48
2021/05/19 00:48:02;;;;;;;;;;;;;;;17.59;42.55;99370.16;5112117;28;19960;-52
2021/05/19 00:50:28;;;;;;;;;;;;;;;17.53;42.36;99371.22;5111765;28;19919;-50
2021/05/19 00:52:54;;;;;;;;;;;;;;;17.64;42.24;99367.53;5112358;28;20311;-52
2021/05/19 00:55:19;;;;;;;;;;;;;;;17.51;42.78;99363.38;5112259;28;20371;-51
2021/05/19 00:57:45;;;;;;;;;;;;;;;17.49;42.56;99360.16;5112299;28;19947;-51
2021/05/19 01:00:11;;;;;;;;;;;;;;;17.58;42.11;99358.59;5112639;28;19911;-51
2021/05/19 01:02:36;;;;;;;;;;;;;;;17.47;42.59;99358.81;5112168;28;19911;-49
2021/05/19 01:05:04;;;;;;;;;;;;;;;17.63;42.50;99355.16;5112263;28;19969;-52
2021/05/19 01:07:33;;;;;;;;;;;;;;;17.55;42.09;99352.94;5112398;28;19912;-48
2021/05/19 01:09:59;;;;;;;;;;;;;;;17.52;42.62;99354.28;5112449;28;20032;-50
2021/05/19 01:12:24;;;;;;;;;;;;;;;17.58;42.31;99345.16;5112151;28;20030;-51
2021/05/19 01:14:50;;;;;;;;;;;;;;;17.46;43.30;99351.78;5111956;28;19920;-51
2021/05/19 01:17:15;;;;;;;;;;;;;;;17.46;42.88;99354.47;5097423;28;19912;-49
2021/05/19 01:19:44;;;;;;;;;;;;;;;17.52;42.65;99351.56;5091395;28;19912;-51
2021/05/19 01:22:10;;;;;;;;;;;;;;;17.51;43.60;99352.63;5090709;28;19912;-50
2021/05/19 01:24:36;;;;;;;;;;;;;;;17.23;42.78;99347.56;5091563;28;19919;-52
2021/05/19 01:27:01;;;;;;;;;;;;;;;17.25;42.83;99345.44;5091536;28;19999;-50
2021/05/19 01:29:26;;;;;;;;;;;;;;;17.23;43.54;99343.03;5091738;28;19987;-51
2021/05/19 01:31:52;;;;;;;;;;;;;;;17.27;42.80;99341.44;5091565;28;19915;-52
2021/05/19 01:34:17;;;;;;;;;;;;;;;17.41;43.13;99344.50;5091213;28;19916;-49
2021/05/19 01:36:42;;;;;;;;;;;;;;;17.45;43.26;99350.97;5091479;28;19919;-49
2021/05/19 01:39:08;;;;;;;;;;;;;;;17.52;43.07;99351.56;5091447;28;19912;-52
2021/05/19 01:41:33;;;;;;;;;;;;;;;17.43;42.60;99345.06;5091352;28;19919;-50
2021/05/19 01:43:59;;;;;;;;;;;;;;;17.26;43.34;99347.88;5091541;28;19912;-49
2021/05/19 01:46:24;;;;;;;;;;;;;;;17.26;43.38;99352.47;5097160;28;19916;-50
2021/05/19 01:48:51;;;;;;;;;;;;;;;17.28;42.74;99350.31;5111817;28;20387;-51
2021/05/19 01:51:17;;;;;;;;;;;;;;;17.22;42.64;99341.41;5111571;28;19927;-52
2021/05/19 01:53:42;;;;;;;;;;;;;;;17.32;42.74;99338.78;5110591;28;19920;-50
2021/05/19 01:56:07;;;;;;;;;;;;;;;17.29;42.32;99338.50;5110493;28;19998;-50
2021/05/19 01:58:32;;;;;;;;;;;;;;;17.32;42.64;99346.84;5111774;28;19912;-50
2021/05/19 02:00:58;;;;;;;;;;;;;;;17.35;42.20;99351.72;5110299;28;20026;-50
2021/05/19 02:03:23;;;;;;;;;;;;;;;17.38;42.00;99353.06;5114286;28;19912;-49
2021/05/19 02:05:48;;;;;;;;;;;;;;;17.40;42.13;99350.94;5114505;28;19988;-47
2021/05/19 02:08:14;;;;;;;;;;;;;;;17.32;42.16;99354.91;5115458;28;19960;-53
2021/05/19 02:10:39;;;;;;;;;;;;;;;17.22;42.71;99354.03;5115524;28;19980;-50
2021/05/19 02:13:05;;;;;;;;;;;;;;;17.29;42.19;99351.94;5115661;28;19920;-52
2021/05/19 02:15:31;;;;;;;;;;;;;;;17.24;43.06;99355.41;5115932;28;20309;-49
2021/05/19 02:17:56;;;;;;;;;;;;;;;17.26;42.62;99358.63;5094915;28;19912;-51
2021/05/19 02:20:21;;;;;;;;;;;;;;;17.24;42.38;99358.09;5095261;28;19915;-49
2021/05/19 02:22:48;;;;;;;;;;;;;;;17.27;43.40;99359.44;5095105;28;20008;-49
2021/05/19 02:25:13;;;;;;;;;;;;;;;17.24;42.45;99359.97;5094649;28;19923;-49
2021/05/19 02:27:38;;;;;;;;;;;;;;;17.12;42.42;99354.78;5094799;28;19912;-51
2021/05/19 02:30:04;;;;;;;;;;;;;;;16.99;42.95;99356.00;5094803;28;19912;-51
2021/05/19 02:32:30;;;;;;;;;;;;;;;16.81;43.19;99362.50;5094582;28;19920;-52
2021/05/19 02:34:55;;;;;;;;;;;;;;;17.01;43.08;99359.22;5094652;28;19966;-48
2021/05/19 02:37:20;;;;;;;;;;;;;;;17.19;42.76;99368.78;5094448;28;19912;-49
2021/05/19 02:39:46;;;;;;;;;;;;;;;17.16;43.00;99366.63;5094783;28;19912;-49
2021/05/19 02:42:11;;;;;;;;;;;;;;;17.17;42.02;99369.06;5094368;28;19919;-50
2021/05/19 02:44:36;;;;;;;;;;;;;;;16.78;43.48;99365.72;5094363;28;19912;-48
2021/05/19 02:47:02;;;;;;;;;;;;;;;16.91;43.63;99377.97;5105564;28;19938;-50
2021/05/19 02:49:27;;;;;;;;;;;;;;;17.04;43.34;99369.50;5114479;28;19918;-52
2021/05/19 02:51:52;;;;;;;;;;;;;;;16.88;43.86;99373.88;5114821;28;19923;-53
2021/05/19 02:54:17;;;;;;;;;;;;;;;17.03;44.28;99367.84;5114756;28;20378;-50
2021/05/19 02:56:43;;;;;;;;;;;;;;;16.87;44.61;99368.75;5114514;28;19912;-48
2021/05/19 02:59:08;;;;;;;;;;;;;;;16.76;44.55;99367.84;5114904;28;19912;-49
2021/05/19 03:01:33;;;;;;;;;;;;;;;16.75;45.38;99366.19;5114465;28;19934;-49
2021/05/19 03:03:58;;;;;;;;;;;;;;;16.54;46.07;99370.53;5114565;28;19916;-51
2021/05/19 03:06:24;;;;;;;;;;;;;;;16.68;45.78;99382.53;5114514;28;19912;-48
2021/05/19 03:08:49;;;;;;;;;;;;;;;16.65;44.98;99382.22;5114282;28;19919;-50
2021/05/19 03:11:15;;;;;;;;;;;;;;;16.41;45.51;99382.47;5114161;28;19911;-48
2021/05/19 03:13:40;;;;;;;;;;;;;;;16.40;45.95;99394.28;5113318;28;20041;-48
2021/05/19 03:16:05;;;;;;;;;;;;;;;16.38;45.90;99386.47;5109322;28;19916;-49
2021/05/19 03:18:31;;;;;;;;;;;;;;;16.36;45.75;99401.22;5093721;28;20380;-51
2021/05/19 03:20:56;;;;;;;;;;;;;;;16.47;46.86;99388.72;5093933;28;19912;-52
2021/05/19 03:23:21;;;;;;;;;;;;;;;16.47;47.87;99394.09;5093964;28;19935;-48
2021/05/19 03:25:46;;;;;;;;;;;;;;;16.26;47.38;99393.03;5093742;28;19919;-47
2021/05/19 03:28:12;;;;;;;;;;;;;;;16.05;48.59;99389.28;5093880;28;19973;-48
2021/05/19 03:30:37;;;;;;;;;;;;;;;16.14;48.13;99395.84;5093565;28;19912;-49
2021/05/19 03:33:03;;;;;;;;;;;;;;;16.24;47.43;99398.69;5093674;28;20348;-49
2021/05/19 03:35:28;;;;;;;;;;;;;;;16.21;47.87;99399.97;5093637;28;19920;-48
2021/05/19 03:37:53;;;;;;;;;;;;;;;16.19;47.48;99390.53;5093948;28;19996;-47
2021/05/19 03:40:19;;;;;;;;;;;;;;;16.43;47.27;99399.19;5093407;28;19912;-50
2021/05/19 03:42:44;;;;;;;;;;;;;;;16.54;47.29;99395.53;5093440;28;20384;-52
2021/05/19 03:45:11;;;;;;;;;;;;;;;16.75;46.77;99401.97;5093504;28;20280;-51
2021/05/19 03:47:36;;;;;;;;;;;;;;;16.91;47.56;99402.97;5109253;28;20295;-48
2021/05/19 03:50:02;;;;;;;;;;;;;;;17.32;46.01;99402.53;5113623;28;20371;-52
2021/05/19 03:52:29;;;;;;;;;;;;;;;17.73;44.78;99397.47;5113885;28;19912;-51
2021/05/19 03:54:55;;;;;;;;;;;;;;;18.10;43.92;99393.94;5113610;28;19927;-52
2021/05/19 03:57:20;;;;;;;;;;;;;;;18.14;44.82;99392.34;5113291;28;19912;-50
2021/05/19 03:59:45;;;;;;;;;;;;;;;18.55;43.85;99389.81;5113737;28;20027;-48
2021/05/19 04:02:10;;;;;;;;;;;;;;;19.18;42.30;99381.59;5100612;28;19916;-49
2021/05/19 04:04:36;;;;;;;;;;;;;;;19.60;41.69;99387.81;5093109;28;19985;-50
2021/05/19 04:07:01;;;;;;;;;;;;;;;19.99;40.38;99385.34;5093247;28;20400;-50
2021/05/19 04:09:26;;;;;;;;;;;;;;;20.28;40.33;99379.31;5092701;28;19912;-47
2021/05/19 04:11:52;;;;;;;;;;;;;;;20.71;38.55;99376.94;5093292;28;20276;-50
2021/05/19 04:14:17;;;;;;;;;;;;;;;20.69;38.96;99384.53;5092292;28;20436;-49
2021/05/19 04:16:42;;;;;;;;;;;;;;;21.15;38.59;99386.97;5092520;28;19919;-52
2021/05/19 04:19:08;;;;;;;;;;;;;;;21.25;37.48;99389.56;5092617;28;19923;-50
2021/05/19 04:21:33;;;;;;;;;;;;;;;21.85;38.45;99391.22;5092203;28;19912;-52
2021/05/19 04:23:58;;;;;;;;;;;;;;;22.36;36.91;99393.38;5092091;28;19919;-53
2021/05/19 04:26:24;;;;;;;;;;;;;;;22.72;35.36;99389.41;5091609;28;19959;-49
2021/05/19 04:28:49;;;;;;;;;;;;;;;23.00;35.12;99393.88;5091452;28;19916;-49
2021/05/19 04:31:14;;;;;;;;;;;;;;;23.31;34.34;99398.06;5089492;28;19923;-48
2021/05/19 04:33:40;;;;;;;;;;;;;;;23.51;34.84;99395.00;5082449;28;19932;-37
2021/05/19 04:36:05;;;;;;;;;;;;;;;23.85;33.80;99390.38;5074594;28;19917;-38
2021/05/19 04:38:30;;;;;;;;;;;;;;;24.20;32.22;99389.69;5088648;28;20347;-38
2021/05/19 04:40:55;;;;;;;;;;;;;;;24.36;32.65;99390.16;5071407;28;19912;-37
2021/05/19 04:43:21;;;;;;;;;;;;;;;24.23;32.10;99387.47;5071463;28;20046;-37
2021/05/19 04:45:46;;;;;;;;;;;;;;;24.68;31.85;99390.38;5088914;28;20057;-38
2021/05/19 04:48:11;;;;;;;;;;;;;;;24.48;30.29;99394.28;5091402;28;19912;-37
2021/05/19 04:50:37;;;;;;;;;;;;;;;25.29;29.81;99393.59;5091506;28;19912;-38
2021/05/19 04:53:02;;;;;;;;;;;;;;;26.00;29.11;99390.16;5091203;28;19920;-38
2021/05/19 04:55:28;;;;;;;;;;;;;;;26.45;28.08;99393.50;5091412;28;20367;-38
2021/05/19 04:57:53;;;;;;;;;;;;;;;26.79;27.58;99393.91;5091467;28;20338;-38
2021/05/19 05:00:18;;;;;;;;;;;;;;;27.24;27.25;99399.03;5091229;28;19912;-39
2021/05/19 05:02:44;;;;;;;;;;;;;;;27.53;26.78;99398.38;5090706;28;19934;-38
2021/05/19 05:05:09;;;;;;;;;;;;;;;27.81;26.16;99395.25;5091350;28;19977;-38
2021/05/19 05:07:35;;;;;;;;;;;;;;;27.92;25.95;99399.25;5090806;28;19916;-38
2021/05/19 05:10:02;;;;;;;;;;;;;;;27.90;25.93;99400.72;5091206;28;19912;-38
2021/05/19 05:12:27;;;;;;;;;;;;;;;27.69;26.55;99396.72;5090810;28;19927;-37
2021/05/19 05:14:52;;;;;;;;;;;;;;;27.94;26.79;99396.19;5091078;28;19920;-38
2021/05/19 05:17:18;;;;;;;;;;;;;;;27.99;26.54;99380.41;5091018;28;19912;-38
2021/05/19 05:19:43;;;;;;;;;;;;;;;27.79;26.65;99387.34;5090209;28;19913;-38
2021/05/19 05:22:08;;;;;;;;;;;;;;;28.10;26.49;99386.28;5090560;28;20378;-38
2021/05/19 05:24:34;;;;;;;;;;;;;;;28.17;26.31;99386.59;5093014;28;20340;-36
2021/05/19 05:26:59;;;;;;;;;;;;;;;28.28;25.74;99389.75;5102812;28;19915;-37
2021/05/19 05:29:24;;;;;;;;;;;;;;;28.54;25.63;99388.81;5093317;28;19920;-36
2021/05/19 05:31:49;;;;;;;;;;;;;;;28.63;25.85;99386.81;5091915;28;20300;-38
2021/05/19 05:34:15;;;;;;;;;;;;;;;29.37;24.68;99387.97;5090785;28;20076;-38
2021/05/19 05:36:40;;;;;;;;;;;;;;;29.74;23.77;99382.63;5090215;28;20003;-38
2021/05/19 05:39:05;;;;;;;;;;;;;;;30.06;23.56;99390.31;5090224;28;20060;-38
2021/05/19 05:41:31;;;;;;;;;;;;;;;30.39;23.46;99391.00;5090550;28;19969;-39
2021/05/19 05:43:56;;;;;;;;;;;;;;;30.74;22.78;99395.97;5090734;28;19989;-38
2021/05/19 05:46:21;;;;;;;;;;;;;;;30.85;23.04;99396.28;5090823;28;19916;-38
2021/05/19 05:48:47;;;;;;;;;;;;;;;31.21;22.78;99391.84;5090839;28;19912;-38
2021/05/19 05:51:12;;;;;;;;;;;;;;;30.51;23.23;99400.38;5090854;28;19930;-38
2021/05/19 05:53:37;;;;;;;;;;;;;;;31.14;22.47;99408.13;5090921;28;19912;-38
2021/05/19 05:56:03;;;;;;;;;;;;;;;30.94;22.31;99407.19;5090738;28;19916;-51
2021/05/19 05:58:28;;;;;;;;;;;;;;;30.62;23.37;99404.25;5090588;28;19919;-49
2021/05/19 06:00:53;;;;;;;;;;;;;;;31.52;22.16;99412.31;5090274;28;19916;-51
2021/05/19 06:03:19;;;;;;;;;;;;;;;32.02;22.25;99404.56;5090394;28;19912;-50
2021/05/19 06:05:44;;;;;;;;;;;;;;;30.62;22.80;99390.50;5089947;28;19912;-50
2021/05/19 06:08:09;;;;;;;;;;;;;;;30.50;23.16;99387.78;5089366;28;20121;-50
2021/05/19 06:10:35;;;;;;;;;;;;;;;30.71;22.69;99390.38;5089664;28;19912;-50
2021/05/19 06:13:00;;;;;;;;;;;;;;;31.29;22.45;99392.84;5071095;28;19920;-51
2021/05/19 06:15:26;;;;;;;;;;;;;;;31.74;22.37;99389.72;5082925;28;19959;-49
2021/05/19 06:17:51;;;;;;;;;;;;;;;31.96;21.86;99382.78;5089613;28;19931;-49
2021/05/19 06:20:16;;;;;;;;;;;;;;;32.49;21.59;99393.47;5080359;28;19919;-49
2021/05/19 06:22:42;;;;;;;;;;;;;;;32.88;21.06;99379.78;5069615;28;19924;-50
2021/05/19 06:25:07;;;;;;;;;;;;;;;32.76;20.78;99379.91;5069949;28;19912;-49
2021/05/19 06:27:32;;;;;;;;;;;;;;;32.90;20.62;99376.66;5069116;28;19952;-48
2021/05/19 06:29:58;;;;;;;;;;;;;;;32.82;20.73;99372.16;5067502;28;20364;-50
2021/05/19 06:32:23;;;;;;;;;;;;;;;33.04;20.57;99371.44;5069160;28;20003;-48
2021/05/19 06:34:48;;;;;;;;;;;;;;;32.89;20.86;99372.31;5068977;28;19923;-48
2021/05/19 06:37:13;;;;;;;;;;;;;;;32.86;21.14;99367.53;5068809;28;20393;-49
2021/05/19 06:39:39;;;;;;;;;;;;;;;32.46;21.13;99376.88;5069072;28;20257;-48
2021/05/19 06:42:04;;;;;;;;;;;;;;;32.33;21.14;99370.72;5068914;28;20015;-50
2021/05/19 06:44:30;;;;;;;;;;;;;;;32.05;21.09;99368.88;5068623;28;19912;-49
2021/05/19 06:46:55;;;;;;;;;;;;;;;31.83;22.24;99359.28;5089490;28;19912;-49
2021/05/19 06:49:20;;;;;;;;;;;;;;;31.18;22.17;99360.34;5110420;28;20330;-48
2021/05/19 06:51:46;;;;;;;;;;;;;;;31.22;22.43;99348.66;5113027;28;19916;-50
2021/05/19 06:54:11;;;;;;;;;;;;;;;31.79;21.29;99349.38;5113134;28;19915;-49
2021/05/19 06:56:38;;;;;;;;;;;;;;;32.20;21.56;99345.25;5112846;28;20405;-50
2021/05/19 06:59:03;;;;;;;;;;;;;;;32.03;20.76;99338.19;5112917;28;19919;-50
2021/05/19 07:01:28;;;;;;;;;;;;;;;31.19;21.59;99333.69;5113527;28;19912;-49
2021/05/19 07:03:54;;;;;;;;;;;;;;;31.17;22.03;99328.53;5094298;28;19943;-48
2021/05/19 07:06:19;;;;;;;;;;;;;;;32.09;21.58;99335.97;5092761;28;20323;-49
2021/05/19 07:08:45;;;;;;;;;;;;;;;32.58;20.16;99324.47;5092543;28;19932;-48
2021/05/19 07:11:10;;;;;;;;;;;;;;;32.84;20.06;99321.09;5092576;28;20392;-48
2021/05/19 07:13:35;;;;;;;;;;;;;;;33.09;19.86;99324.31;5092083;28;19999;-49
2021/05/19 07:16:02;;;;;;;;;;;;;;;33.29;19.74;99327.03;5092633;28;20349;-49
2021/05/19 07:18:27;;;;;;;;;;;;;;;33.69;19.40;99315.53;5092283;28;19919;-50
2021/05/19 07:20:52;;;;;;;;;;;;;;;34.19;18.75;99311.97;5092253;28;19916;-51
2021/05/19 07:23:18;;;;;;;;;;;;;;;33.41;19.04;99312.28;5092289;28;19995;-50
2021/05/19 07:25:43;;;;;;;;;;;;;;;33.73;19.41;99309.28;5092530;28;19998;-49
2021/05/19 07:28:08;;;;;;;;;;;;;;;34.64;18.63;99304.66;5092631;28;20359;-48
2021/05/19 07:30:34;;;;;;;;;;;;;;;34.97;17.96;99305.84;5091702;28;19912;-50
2021/05/19 07:33:00;;;;;;;;;;;;;;;33.95;19.59;99297.41;5092170;28;19919;-50
2021/05/19 07:35:26;;;;;;;;;;;;;;;34.34;18.94;99299.16;5092215;28;19961;-48
2021/05/19 07:37:51;;;;;;;;;;;;;;;34.61;19.00;99295.16;5092160;28;19945;-49
2021/05/19 07:40:17;;;;;;;;;;;;;;;35.31;18.39;99294.75;5091844;28;19912;-50
2021/05/19 07:42:43;;;;;;;;;;;;;;;35.87;17.86;99290.88;5091674;28;19919;-51
2021/05/19 07:45:09;;;;;;;;;;;;;;;35.47;17.49;99302.78;5091496;28;19949;-47
2021/05/19 07:47:34;;;;;;;;;;;;;;;33.91;19.16;99301.28;5107816;28;19916;-50
2021/05/19 07:49:59;;;;;;;;;;;;;;;33.88;18.82;99300.06;5112797;28;19911;-48
2021/05/19 07:52:25;;;;;;;;;;;;;;;33.30;19.78;99299.13;5111976;28;20428;-48
2021/05/19 07:54:50;;;;;;;;;;;;;;;33.86;19.62;99294.13;5111698;28;20267;-47
2021/05/19 07:57:28;;;;;;;;;;;;;;;34.78;18.18;99290.25;5111868;28;19915;-50
2021/05/19 08:00:14;;;;;;;;;;;;;;;34.78;18.04;99290.25;5111613;28;19922;-48
2021/05/19 08:02:40;;;;;;;;;;;;;;;35.05;17.67;99288.97;5103752;28;19912;-49
2021/05/19 08:05:05;;;;;;;;;;;;;;;33.47;19.32;99277.72;5091385;28;19912;-50
2021/05/19 08:07:30;;;;;;;;;;;;;;;34.01;19.43;99275.81;5091083;28;19919;-50
2021/05/19 08:09:56;;;;;;;;;;;;;;;32.67;20.10;99272.75;5091033;28;19915;-48
2021/05/19 08:12:21;;;;;;;;;;;;;;;33.13;20.50;99273.97;5091055;28;19916;-47
2021/05/19 08:14:46;;;;;;;;;;;;;;;33.83;19.59;99275.53;5090971;28;19920;-48
2021/05/19 08:17:12;;;;;;;;;;;;;;;33.57;19.06;99271.59;5090665;28;19969;-50
2021/05/19 08:19:37;;;;;;;;;;;;;;;33.25;19.54;99265.53;5089949;28;19912;-50
2021/05/19 08:22:03;;;;;;;;;;;;;;;33.21;19.85;99259.19;5091389;28;20237;-50
2021/05/19 08:24:28;;;;;;;;;;;;;;;32.88;19.92;99250.31;5091629;28;20028;-47
2021/05/19 08:26:54;;;;;;;;;;;;;;;31.79;21.35;99256.63;5091469;28;19924;-49
2021/05/19 08:29:19;;;;;;;;;;;;;;;32.16;21.50;99245.31;5090133;28;20042;-50
2021/05/19 08:31:44;;;;;;;;;;;;;;;32.39;21.35;99239.88;5091399;28;20003;-51
2021/05/19 08:34:10;;;;;;;;;;;;;;;32.18;21.04;99244.94;5091472;28;19930;-50
2021/05/19 08:36:35;;;;;;;;;;;;;;;32.09;21.50;99232.19;5091319;28;19943;-48
2021/05/19 08:39:00;;;;;;;;;;;;;;;32.26;22.16;99235.69;5091598;28;19968;-52
2021/05/19 08:41:26;;;;;;;;;;;;;;;31.16;22.63;99225.25;5091264;28;20009;-48
2021/05/19 08:43:51;;;;;;;;;;;;;;;31.40;21.77;99222.69;5091387;28;19912;-49
2021/05/19 08:46:16;;;;;;;;;;;;;;;31.46;21.82;99224.84;5096304;28;19920;-50
2021/05/19 08:48:50;;;;;;;;;;;;;;;31.90;21.97;99212.88;5098876;28;20249;-49
2021/05/19 08:51:16;;;;;;;;;;;;;;;32.11;21.58;99210.59;5080502;28;20245;-49
2021/05/19 08:53:41;;;;;;;;;;;;;;;31.83;22.04;99205.25;5086623;28;19919;-52
2021/05/19 08:56:07;;;;;;;;;;;;;;;31.37;23.00;99207.72;5091558;28;20065;-49
2021/05/19 08:58:33;;;;;;;;;;;;;;;31.73;22.30;99211.31;5092020;28;19998;-51
2021/05/19 09:00:58;;;;;;;;;;;;;;;31.71;22.29;99208.94;5091287;28;20068;-50
2021/05/19 09:03:23;;;;;;;;;;;;;;;31.84;21.26;99204.13;5091231;28;19938;-52
2021/05/19 09:05:49;;;;;;;;;;;;;;;30.77;22.74;99200.31;5091641;28;19912;-49
2021/05/19 09:08:18;;;;;;;;;;;;;;;30.86;22.96;99191.09;5091210;28;19916;-51
2021/05/19 09:10:59;;;;;;;;;;;;;;;31.47;22.16;99189.91;5091273;28;19916;-48
2021/05/19 09:13:34;;;;;;;;;;;;;;;31.83;22.17;99193.47;5090451;28;20071;-48
2021/05/19 09:16:00;;;;;;;;;;;;;;;31.15;21.21;99198.16;5090835;28;19947;-51
2021/05/19 09:18:28;;;;;;;;;;;;;;;30.55;21.60;99192.66;5091402;28;20016;-50
2021/05/19 09:20:54;;;;;;;;;;;;;;;29.61;22.41;99180.88;5086849;28;19920;-50
2021/05/19 09:23:23;;;;;;;;;;;;;;;30.31;21.94;99172.38;5087269;28;19922;-50
2021/05/19 09:26:07;;;;;;;;;;;;;;;29.85;22.33;99179.25;5091055;28;20003;-51
2021/05/19 09:28:32;;;;;;;;;;;;;;;29.13;23.64;99158.63;5091432;28;19912;-50
2021/05/19 09:30:57;;;;;;;;;;;;;;;28.98;24.22;99157.34;5089776;28;19912;-50
2021/05/19 09:33:24;;;;;;;;;;;;;;;29.33;24.42;99150.63;5091220;28;19938;-52
2021/05/19 09:36:08;;;;;;;;;;;;;;;29.32;24.31;99149.03;5090798;28;19920;-50
2021/05/19 09:38:33;;;;;;;;;;;;;;;29.53;23.44;99141.50;5091064;28;20411;-51
2021/05/19 09:41:14;;;;;;;;;;;;;;;29.92;22.52;99135.59;5090670;28;19985;-51
2021/05/19 09:43:39;;;;;;;;;;;;;;;28.98;23.31;99137.38;5090472;28;20278;-52
2021/05/19 09:46:12;;;;;;;;;;;;;;;29.07;23.36;99131.78;5093811;28;19911;-50
2021/05/19 09:48:38;;;;;;;;;;;;;;;28.69;23.26;99128.19;5109688;28;19919;-51
2021/05/19 09:51:04;;;;;;;;;;;;;;;28.55;23.58;99130.44;5111269;28;19916;-49
2021/05/19 09:53:33;;;;;;;;;;;;;;;28.88;23.44;99135.06;5111190;28;19959;-49
2021/05/19 09:55:58;;;;;;;;;;;;;;;28.53;24.39;99130.00;5110570;28;20316;-50
2021/05/19 09:58:36;;;;;;;;;;;;;;;28.84;24.04;99133.03;5111202;28;20003;-50
2021/05/19 10:01:01;;;;;;;;;;;;;;;29.37;23.08;99121.41;5110923;28;19968;-51
2021/05/19 10:03:26;;;;;;;;;;;;;;;29.04;23.74;99120.38;5091635;28;19916;-48
2021/05/19 10:06:06;;;;;;;;;;;;;;;28.90;23.20;99108.16;5091082;28;19918;-51
2021/05/19 10:08:31;;;;;;;;;;;;;;;29.57;22.72;99097.75;5090754;28;20288;-52
2021/05/19 10:10:58;;;;;;;;;;;;;;;29.85;23.70;99102.47;5089500;28;19961;-49
2021/05/19 10:13:23;;;;;;;;;;;;;;;29.95;22.09;99110.22;5090615;28;19983;-51
2021/05/19 10:15:49;;;;;;;;;;;;;;;29.11;23.24;99097.91;5091215;28;19920;-51
2021/05/19 10:18:17;;;;;;;;;;;;;;;28.44;23.42;99084.34;5090893;28;19912;-50
2021/05/19 10:20:43;;;;;;;;;;;;;;;28.59;23.87;99087.59;5089368;28;19912;-54
2021/05/19 10:23:10;;;;;;;;;;;;;;;28.54;23.39;99083.13;5090754;28;19919;-48
2021/05/19 10:25:36;;;;;;;;;;;;;;;29.35;22.97;99074.38;5093922;28;19998;-49
2021/05/19 10:28:03;;;;;;;;;;;;;;;29.92;21.91;99087.03;5094446;28;19923;-52
2021/05/19 10:30:37;;;;;;;;;;;;;;;29.71;22.20;99087.19;5094154;28;20570;-51
2021/05/19 10:33:03;;;;;;;;;;;;;;;30.14;22.13;99080.19;5091889;28;20323;-51
2021/05/19 10:35:30;;;;;;;;;;;;;;;29.02;22.60;99073.34;5093919;28;19924;-51
2021/05/19 10:37:56;;;;;;;;;;;;;;;29.97;21.86;99067.59;5094160;28;19920;-52
2021/05/19 10:40:21;;;;;;;;;;;;;;;30.07;22.29;99060.00;5093286;28;19919;-49
2021/05/19 10:42:53;;;;;;;;;;;;;;;29.46;22.54;99061.00;5094409;28;19912;-50
2021/05/19 10:45:19;;;;;;;;;;;;;;;29.20;22.87;99052.00;5094399;28;19969;-49
2021/05/19 10:47:45;;;;;;;;;;;;;;;29.31;23.33;99046.88;5111523;28;20407;-52
2021/05/19 10:58:35;;;;;;;;;;;;;;;28.70;23.07;99023.06;5093609;28;20391;-39
2021/05/19 11:01:01;;;;;;;;;;;;;;;29.00;23.33;99029.09;5093004;28;19969;-37
2021/05/19 11:03:26;;;;;;;;;;;;;;;29.63;22.38;99020.41;5093977;28;19912;-40
2021/05/19 11:05:55;;;;;;;;;;;;;;;29.76;22.23;99023.94;5093224;28;19934;-38
2021/05/19 11:08:29;;;;;;;;;;;;;;;28.95;22.75;99023.03;5093778;28;19912;-38
2021/05/19 11:11:14;;;;;;;;;;;;;;;29.20;22.71;99019.16;5093260;28;19969;-38
2021/05/19 11:13:59;;;;;;;;;;;;;;;28.80;22.50;99008.91;5092911;28;19930;-38
2021/05/19 11:16:29;;;;;;;;;;;;;;;28.16;23.09;99006.75;5093210;28;19985;-38
2021/05/19 11:19:06;;;;;;;;;;;;;;;28.37;22.76;99003.94;5093105;28;19985;-38
2021/05/19 11:21:31;;;;;;;;;;;;;;;29.04;22.91;99005.34;5093227;28;20397;-38
2021/05/19 11:24:06;;;;;;;;;;;;;;;29.73;22.04;99001.91;5093417;28;19919;-38
2021/05/19 11:26:36;;;;;;;;;;;;;;;30.32;21.37;98997.59;5093106;28;19962;-38
2021/05/19 11:29:01;;;;;;;;;;;;;;;30.36;22.22;98990.25;5091971;28;19912;-37
2021/05/19 11:31:31;;;;;;;;;;;;;;;30.52;21.60;98982.81;5093061;28;20014;-38
2021/05/19 11:33:57;;;;;;;;;;;;;;;29.96;21.47;98985.66;5092856;28;19947;-38
2021/05/19 11:36:41;;;;;;;;;;;;;;;30.64;22.20;98981.13;5091283;28;19962;-38
2021/05/19 11:39:39;;;;;;;;;;;;;;;30.95;21.65;98977.53;5093336;28;19962;-37
2021/05/19 11:42:15;;;;;;;;;;;;;;;31.65;20.41;98975.84;5083666;28;20368;-37
2021/05/19 11:44:54;;;;;;;;;;;;;;;30.84;21.13;98946.25;5092582;28;20303;-38
2021/05/19 11:47:29;;;;;;;;;;;;;;;29.49;22.34;98969.88;5100398;28;19920;-39
2021/05/19 11:50:15;;;;;;;;;;;;;;;28.93;23.16;98962.34;5105300;28;19916;-38
2021/05/19 11:52:50;;;;;;;;;;;;;;;28.65;24.08;98957.59;5099887;28;20271;-38
2021/05/19 11:55:24;;;;;;;;;;;;;;;28.26;23.84;98960.63;5093938;28;19969;-38
2021/05/19 11:57:49;;;;;;;;;;;;;;;28.60;23.90;98961.38;5099787;28;19965;-38
2021/05/19 12:00:15;;;;;;;;;;;;;;;28.65;23.84;98954.84;5102647;28;19912;-38
2021/05/19 12:02:52;;;;;;;;;;;;;;;29.18;22.95;98957.66;5106208;28;20304;-38
2021/05/19 12:05:18;;;;;;;;;;;;;;;28.52;23.97;98950.53;5095748;28;19995;-38
2021/05/19 12:07:44;;;;;;;;;;;;;;;28.80;23.43;98956.88;5106713;28;19928;-39
2021/05/19 12:10:10;;;;;;;;;;;;;;;28.46;24.09;98963.59;5101815;28;19986;-38
2021/05/19 12:12:35;;;;;;;;;;;;;;;28.75;24.22;98950.84;5099367;28;19916;-38
2021/05/19 12:15:00;;;;;;;;;;;;;;;29.65;23.53;98942.53;5107494;28;19938;-38
2021/05/19 12:17:26;;;;;;;;;;;;;;;30.25;22.48;98940.53;5111413;28;19954;-38
2021/05/19 12:19:51;;;;;;;;;;;;;;;29.83;23.38;98935.56;5112163;28;19912;-38
2021/05/19 12:22:18;;;;;;;;;;;;;;;30.60;22.54;98937.91;5112486;28;19912;-35
2021/05/19 12:24:44;;;;;;;;;;;;;;;31.54;21.55;98917.91;5112220;28;19915;-38
2021/05/19 12:27:09;;;;;;;;;;;;;;;31.16;21.68;98919.50;5101397;28;20368;-38
2021/05/19 12:29:39;;;;;;;;;;;;;;;31.05;21.81;98919.25;5090368;28;19928;-38
2021/05/19 12:32:08;;;;;;;;;;;;;;;31.31;21.48;98915.09;5103475;28;19912;-37
2021/05/19 12:34:34;;;;;;;;;;;;;;;30.31;23.36;98919.94;5096110;28;19989;-38
2021/05/19 12:36:59;;;;;;;;;;;;;;;31.43;22.26;98925.13;5107296;28;20331;-38
2021/05/19 12:39:25;;;;;;;;;;;;;;;32.01;21.57;98914.03;5097884;28;19955;-37
2021/05/19 12:41:52;;;;;;;;;;;;;;;31.11;22.53;98915.09;5102172;28;19955;-38
2021/05/19 12:44:18;;;;;;;;;;;;;;;30.19;23.20;98909.03;5105314;28;19934;-38
2021/05/19 12:46:59;;;;;;;;;;;;;;;31.20;22.37;98905.84;5095367;28;19912;-38
2021/05/19 12:49:24;;;;;;;;;;;;;;;31.43;21.96;98892.94;5105846;28;19962;-38
2021/05/19 12:51:55;;;;;;;;;;;;;;;30.64;22.73;98876.78;5092028;28;19955;-38
2021/05/19 12:54:23;;;;;;;;;;;;;;;31.21;22.50;98880.75;5105865;28;19916;-37